Time;durP1;ratioP1;P1;durP2;ratioP2;P2;SDS_P1;SDS_P2;PMS_P1;PMS_P2;Temp;Humidity;BMP_temperature;BMP_pressure;BME280_temperature;BME280_humidity;BME280_pressure;Samples;Min_cycle;Max_cycle;Signal;HPM_P1;HPM_P2
2022/12/26 00:00:37;;;;;;;26.45;15.60;;;;;;;;;;2114423;28;20055;-44
2022/12/26 00:01:40;;;;;;;29.15;18.15;;;;;;;;;;2114405;28;20062;-47
2022/12/26 00:02:41;;;;;;;28.58;18.58;;;;;;;;;;2114421;28;20077;-46
2022/12/26 00:03:42;;;;;;;28.00;18.77;;;;;;;;;;2114621;28;20112;-45
2022/12/26 00:04:43;;;;;;;29.85;18.95;;;;;;;;;;2114475;28;20150;-45
2022/12/26 00:05:53;;;;;;;27.67;17.58;;;;;;;;;;2114499;28;20047;-45
2022/12/26 00:06:54;;;;;;;30.33;19.10;;;;;;;;;;2114456;28;20137;-45
2022/12/26 00:07:55;;;;;;;28.35;18.38;;;;;;;;;;2114725;28;20050;-47
2022/12/26 00:08:57;;;;;;;29.60;18.88;;;;;;;;;;2114258;28;20057;-45
2022/12/26 00:09:58;;;;;;;25.48;18.27;;;;;;;;;;2114468;28;20043;-46
2022/12/26 00:10:59;;;;;;;26.20;17.27;;;;;;;;;;2114404;28;20088;-45
2022/12/26 00:12:01;;;;;;;23.88;15.13;;;;;;;;;;2114596;28;20047;-47
2022/12/26 00:13:01;;;;;;;25.73;17.40;;;;;;;;;;2114377;28;20039;-47
2022/12/26 00:14:23;;;;;;;27.80;16.67;;;;;;;;;;2114483;28;20048;-47
2022/12/26 00:15:24;;;;;;;25.83;16.80;;;;;;;;;;2114403;28;20385;-47
2022/12/26 00:16:25;;;;;;;27.53;17.23;;;;;;;;;;2114408;28;20078;-49
2022/12/26 00:17:26;;;;;;;23.00;16.02;;;;;;;;;;2114491;28;20051;-47
2022/12/26 00:18:27;;;;;;;25.80;16.65;;;;;;;;;;2114174;28;20456;-47
2022/12/26 00:19:28;;;;;;;24.45;16.42;;;;;;;;;;2114435;28;20050;-48
2022/12/26 00:20:29;;;;;;;23.15;15.18;;;;;;;;;;2114354;28;20051;-47
2022/12/26 00:21:30;;;;;;;24.13;16.02;;;;;;;;;;2114342;28;20043;-47
2022/12/26 00:22:31;;;;;;;25.75;15.68;;;;;;;;;;2114384;28;20408;-48
2022/12/26 00:23:32;;;;;;;25.42;16.05;;;;;;;;;;2114306;28;20051;-46
2022/12/26 00:24:33;;;;;;;24.10;15.60;;;;;;;;;;2114445;28;20567;-47
2022/12/26 00:25:34;;;;;;;26.35;17.08;;;;;;;;;;2114281;28;20559;-47
2022/12/26 00:26:37;;;;;;;24.97;16.90;;;;;;;;;;2119936;28;20070;-45
2022/12/26 00:27:37;;;;;;;24.17;14.40;;;;;;;;;;2122717;28;20054;-45
2022/12/26 00:28:39;;;;;;;25.33;16.87;;;;;;;;;;2122863;27;20577;-47
2022/12/26 00:29:40;;;;;;;25.63;16.40;;;;;;;;;;2122811;28;20047;-45
2022/12/26 00:30:41;;;;;;;27.52;17.52;;;;;;;;;;2122920;28;20077;-45
2022/12/26 00:31:42;;;;;;;26.37;16.83;;;;;;;;;;2122846;28;20082;-45
2022/12/26 00:32:43;;;;;;;28.80;17.27;;;;;;;;;;2122782;28;20054;-45
2022/12/26 00:33:44;;;;;;;26.30;15.57;;;;;;;;;;2119918;27;20053;-47
2022/12/26 00:34:45;;;;;;;26.35;17.95;;;;;;;;;;2114247;28;20051;-45
2022/12/26 00:35:46;;;;;;;27.48;17.40;;;;;;;;;;2114249;28;20043;-45
2022/12/26 00:36:47;;;;;;;24.42;16.48;;;;;;;;;;2114125;28;20172;-47
2022/12/26 00:37:48;;;;;;;25.50;16.33;;;;;;;;;;2114254;28;20061;-45
2022/12/26 00:38:50;;;;;;;25.58;16.98;;;;;;;;;;2114184;28;20043;-45
2022/12/26 00:39:51;;;;;;;27.77;16.52;;;;;;;;;;2114190;28;20044;-45
2022/12/26 00:40:52;;;;;;;26.45;17.27;;;;;;;;;;2114262;28;20035;-45
2022/12/26 00:41:53;;;;;;;24.52;15.40;;;;;;;;;;2114194;28;20050;-45
2022/12/26 00:42:54;;;;;;;27.13;16.63;;;;;;;;;;2114218;28;20313;-46
2022/12/26 00:43:55;;;;;;;23.90;16.70;;;;;;;;;;2114164;28;20553;-46
2022/12/26 00:44:56;;;;;;;26.75;17.02;;;;;;;;;;2114290;28;20040;-45
2022/12/26 00:45:58;;;;;;;24.65;16.80;;;;;;;;;;2114252;28;20135;-46
2022/12/26 00:46:59;;;;;;;27.20;17.45;;;;;;;;;;2114303;28;20040;-45
2022/12/26 00:48:00;;;;;;;25.77;17.63;;;;;;;;;;2114178;28;20051;-46
2022/12/26 00:49:01;;;;;;;26.60;16.45;;;;;;;;;;2113974;28;20087;-45
2022/12/26 00:50:02;;;;;;;28.37;17.90;;;;;;;;;;2114067;28;20044;-45
2022/12/26 00:51:15;;;;;;;23.10;13.07;;;;;;;;;;2114147;28;20074;-47
2022/12/26 00:52:17;;;;;;;27.55;17.55;;;;;;;;;;2114116;28;20044;-44
2022/12/26 00:53:17;;;;;;;25.85;17.13;;;;;;;;;;2114022;28;20051;-44
2022/12/26 00:54:19;;;;;;;28.73;15.27;;;;;;;;;;2113996;28;20050;-46
2022/12/26 00:55:19;;;;;;;29.35;18.10;;;;;;;;;;2114065;28;20055;-44
2022/12/26 00:56:21;;;;;;;27.58;17.10;;;;;;;;;;2114181;28;20079;-44
2022/12/26 00:57:22;;;;;;;28.15;18.35;;;;;;;;;;2114135;28;20058;-45
2022/12/26 00:58:24;;;;;;;26.88;17.55;;;;;;;;;;2113693;28;20447;-47
2022/12/26 00:59:25;;;;;;;27.17;18.05;;;;;;;;;;2114066;28;20403;-46
2022/12/26 01:00:28;;;;;;;27.02;18.00;;;;;;;;;;2114057;28;20051;-46
2022/12/26 01:01:29;;;;;;;30.13;19.13;;;;;;;;;;2114021;28;20089;-45
2022/12/26 01:02:39;;;;;;;29.48;17.75;;;;;;;;;;2114174;28;20051;-45
2022/12/26 01:03:41;;;;;;;28.85;18.20;;;;;;;;;;2113775;28;20051;-46
2022/12/26 01:04:43;;;;;;;29.08;17.77;;;;;;;;;;2114245;28;20044;-46
2022/12/26 01:05:45;;;;;;;28.40;17.65;;;;;;;;;;2114051;28;20055;-46
2022/12/26 01:06:46;;;;;;;26.30;17.23;;;;;;;;;;2114058;28;20036;-45
2022/12/26 01:07:47;;;;;;;27.80;17.23;;;;;;;;;;2114048;28;20051;-46
2022/12/26 01:09:10;;;;;;;28.38;17.23;;;;;;;;;;2114012;28;20450;-47
2022/12/26 01:10:11;;;;;;;26.40;16.48;;;;;;;;;;2113967;28;20479;-47
2022/12/26 01:11:14;;;;;;;26.85;17.38;;;;;;;;;;2114084;28;20060;-46
2022/12/26 01:12:15;;;;;;;25.30;15.20;;;;;;;;;;2114081;28;20056;-47
2022/12/26 01:13:17;;;;;;;30.83;15.73;;;;;;;;;;2113820;28;20077;-46
2022/12/26 01:14:18;;;;;;;25.65;16.33;;;;;;;;;;2114284;28;20039;-48
2022/12/26 01:15:19;;;;;;;22.67;14.48;;;;;;;;;;2114255;28;20297;-46
2022/12/26 01:16:20;;;;;;;25.67;15.50;;;;;;;;;;2113894;28;20417;-46
2022/12/26 01:17:21;;;;;;;25.33;15.52;;;;;;;;;;2114097;28;20051;-46
2022/12/26 01:18:22;;;;;;;28.08;17.88;;;;;;;;;;2113966;28;20446;-46
2022/12/26 01:19:23;;;;;;;25.83;14.40;;;;;;;;;;2113853;28;20047;-46
2022/12/26 01:20:24;;;;;;;23.38;15.68;;;;;;;;;;2114339;28;20078;-46
2022/12/26 01:21:26;;;;;;;24.13;16.07;;;;;;;;;;2114107;28;20047;-46
2022/12/26 01:22:27;;;;;;;25.63;16.23;;;;;;;;;;2115696;28;20055;-46
2022/12/26 01:23:28;;;;;;;23.85;14.60;;;;;;;;;;2122341;27;20051;-46
2022/12/26 01:24:29;;;;;;;22.52;14.23;;;;;;;;;;2122460;28;20039;-46
2022/12/26 01:25:30;;;;;;;23.27;14.87;;;;;;;;;;2122359;28;20079;-46
2022/12/26 01:26:31;;;;;;;21.38;14.55;;;;;;;;;;2122567;28;20047;-49
2022/12/26 01:27:32;;;;;;;22.17;14.52;;;;;;;;;;2122510;28;20488;-45
2022/12/26 01:28:34;;;;;;;21.70;13.50;;;;;;;;;;2122670;27;20043;-45
2022/12/26 01:29:35;;;;;;;22.02;14.18;;;;;;;;;;2122478;28;20107;-45
2022/12/26 01:30:36;;;;;;;25.75;15.00;;;;;;;;;;2122392;28;20092;-45
2022/12/26 01:31:37;;;;;;;22.13;14.43;;;;;;;;;;2122643;28;20054;-47
2022/12/26 01:32:38;;;;;;;22.17;14.40;;;;;;;;;;2122465;28;20065;-46
2022/12/26 01:33:39;;;;;;;24.23;14.35;;;;;;;;;;2120704;27;20043;-45
2022/12/26 01:34:40;;;;;;;23.20;14.93;;;;;;;;;;2114095;28;20187;-44
2022/12/26 01:35:48;;;;;;;22.55;15.45;;;;;;;;;;2114007;28;20055;-45
2022/12/26 01:36:50;;;;;;;23.10;13.32;;;;;;;;;;2114062;28;20039;-45
2022/12/26 01:37:51;;;;;;;24.13;15.02;;;;;;;;;;2113803;28;20131;-45
2022/12/26 01:38:53;;;;;;;24.77;15.63;;;;;;;;;;2113922;28;20329;-45
2022/12/26 01:39:53;;;;;;;23.02;15.20;;;;;;;;;;2113928;28;20048;-45
2022/12/26 01:42:12;;;;;;;21.73;15.32;;;;;;;;;;2113166;28;20381;-46
2022/12/26 01:43:15;;;;;;;25.85;15.85;;;;;;;;;;2113787;28;20069;-46
2022/12/26 01:44:34;;;;;;;21.15;14.30;;;;;;;;;;2113779;28;20052;-45
2022/12/26 01:45:36;;;;;;;21.50;13.00;;;;;;;;;;2113869;28;20048;-45
2022/12/26 01:46:38;;;;;;;21.45;14.48;;;;;;;;;;2113912;28;20116;-45
2022/12/26 01:47:41;;;;;;;19.25;12.82;;;;;;;;;;2113738;28;20502;-45
2022/12/26 01:48:44;;;;;;;21.50;13.98;;;;;;;;;;2113729;28;20043;-47
2022/12/26 01:49:44;;;;;;;;;;;;;;;;;;2114369;28;20385;-47
2022/12/26 01:50:49;;;;;;;21.27;12.38;;;;;;;;;;2113847;28;20069;-46
2022/12/26 01:51:52;;;;;;;23.08;14.13;;;;;;;;;;2113872;28;20684;-46
2022/12/26 01:52:55;;;;;;;21.00;13.95;;;;;;;;;;2113893;28;20054;-45
2022/12/26 01:53:57;;;;;;;20.65;13.57;;;;;;;;;;2113793;28;20043;-46
2022/12/26 01:55:19;;;;;;;23.65;14.98;;;;;;;;;;2113640;28;20048;-44
2022/12/26 01:56:22;;;;;;;22.73;14.63;;;;;;;;;;2113824;28;20523;-44
2022/12/26 01:57:25;;;;;;;22.77;14.45;;;;;;;;;;2113700;28;20040;-43
2022/12/26 01:58:28;;;;;;;22.77;15.05;;;;;;;;;;2113756;28;20073;-44
2022/12/26 01:59:32;;;;;;;22.90;14.48;;;;;;;;;;2113698;28;20474;-47
2022/12/26 02:00:33;;;;;;;24.05;15.32;;;;;;;;;;2113808;28;20047;-46
2022/12/26 02:01:34;;;;;;;;;;;;;;;;;;2114227;28;20553;-46
2022/12/26 02:06:32;;;;;;;23.52;15.63;;;;;;;;;;2122241;28;20044;-45
2022/12/26 02:07:33;;;;;;;22.83;15.27;;;;;;;;;;2122274;28;20047;-45
2022/12/26 02:08:35;;;;;;;22.40;13.65;;;;;;;;;;2122066;27;20590;-45
2022/12/26 02:09:36;;;;;;;;;;;;;;;;;;2122767;27;20096;-46
2022/12/26 02:10:40;;;;;;;21.67;12.85;;;;;;;;;;2123388;28;19969;-45
2022/12/26 02:11:43;;;;;;;21.42;13.23;;;;;;;;;;2123941;28;20051;-46
2022/12/26 02:12:45;;;;;;;21.40;13.88;;;;;;;;;;2123652;28;20051;-45
2022/12/26 02:13:46;;;;;;;21.80;15.02;;;;;;;;;;2123462;27;20444;-47
2022/12/26 02:14:48;;;;;;;22.13;14.77;;;;;;;;;;2123841;28;20061;-45
2022/12/26 02:15:49;;;;;;;22.92;15.45;;;;;;;;;;2123749;28;20047;-45
2022/12/26 02:16:50;;;;;;;25.80;15.77;;;;;;;;;;2123780;28;20035;-45
2022/12/26 02:17:52;;;;;;;23.33;12.85;;;;;;;;;;2123593;28;20043;-46
2022/12/26 02:18:53;;;;;;;22.58;15.07;;;;;;;;;;2123418;27;20446;-47
2022/12/26 02:19:59;;;;;;;22.27;15.38;;;;;;;;;;2123635;28;20035;-45
2022/12/26 02:21:10;;;;;;;20.90;12.23;;;;;;;;;;2123729;28;20043;-45
2022/12/26 02:22:19;;;;;;;24.13;15.38;;;;;;;;;;2123573;28;20051;-45
2022/12/26 02:23:39;;;;;;;24.17;15.07;;;;;;;;;;2123485;27;20047;-45
2022/12/26 02:24:58;;;;;;;24.58;14.07;;;;;;;;;;2123580;28;20483;-45
2022/12/26 02:26:23;;;;;;;23.00;15.55;;;;;;;;;;2123522;28;20403;-45
2022/12/26 02:27:34;;;;;;;22.33;12.52;;;;;;;;;;2123551;28;20388;-45
2022/12/26 02:29:02;;;;;;;26.35;16.88;;;;;;;;;;2123567;27;20047;-45
2022/12/26 02:30:06;;;;;;;21.85;13.30;;;;;;;;;;2123735;28;20049;-45
2022/12/26 02:31:11;;;;;;;23.15;13.07;;;;;;;;;;2123584;28;20051;-48
2022/12/26 02:32:16;;;;;;;24.63;15.82;;;;;;;;;;2123768;28;20096;-44
2022/12/26 02:33:29;;;;;;;24.10;14.52;;;;;;;;;;2123470;27;20043;-45
2022/12/26 02:34:34;;;;;;;24.73;15.88;;;;;;;;;;2115054;28;20458;-45
2022/12/26 02:35:52;;;;;;;24.35;16.10;;;;;;;;;;2114976;28;20415;-46
2022/12/26 02:37:00;;;;;;;21.35;13.95;;;;;;;;;;2115116;28;20396;-46
2022/12/26 02:38:08;;;;;;;22.30;14.55;;;;;;;;;;2114942;28;20070;-44
2022/12/26 02:39:16;;;;;;;21.27;14.27;;;;;;;;;;2115143;28;20051;-45
2022/12/26 02:40:45;;;;;;;17.75;10.75;;;;;;;;;;2114955;28;20050;-45
2022/12/26 02:41:51;;;;;;;22.20;14.43;;;;;;;;;;2115056;28;20044;-45
2022/12/26 02:42:56;;;;;;;20.55;14.05;;;;;;;;;;2115152;28;20077;-45
2022/12/26 02:47:01;;;;;;;20.75;11.70;;;;;;;;;;2114802;28;20043;-46
2022/12/26 02:47:02;;;;;;;20.75;13.10;;;;;;;;;;2114985;28;20047;-45
2022/12/26 02:48:06;;;;;;;20.45;11.98;;;;;;;;;;2114986;28;20050;-44
2022/12/26 02:49:14;;;;;;;23.77;14.93;;;;;;;;;;2114984;28;20062;-45
2022/12/26 03:13:55;;;;;;;20.20;12.75;;;;;;;;;;2114688;28;20051;-44
2022/12/26 03:14:59;;;;;;;20.70;13.30;;;;;;;;;;2116393;28;20484;-45
2022/12/26 03:17:26;;;;;;;20.33;13.20;;;;;;;;;;2123434;28;20051;-45
2022/12/26 03:18:31;;;;;;;20.02;13.95;;;;;;;;;;2123162;27;20043;-43
2022/12/26 03:19:59;;;;;;;18.50;12.00;;;;;;;;;;2123254;28;20050;-44
2022/12/26 03:21:01;;;;;;;20.38;14.00;;;;;;;;;;2123013;27;20043;-44
2022/12/26 03:22:29;;;;;;;20.58;14.38;;;;;;;;;;2123193;28;20042;-43
2022/12/26 03:23:25;;;;;;;21.23;14.38;;;;;;;;;;2123042;27;20055;-46
2022/12/26 03:26:38;;;;;;;22.40;14.82;;;;;;;;;;2123153;28;20043;-44
2022/12/26 03:27:10;;;;;;;20.88;13.52;;;;;;;;;;2123286;28;20058;-44
2022/12/26 03:28:11;;;;;;;20.38;14.05;;;;;;;;;;2123032;27;20046;-43
2022/12/26 03:31:57;;;;;;;20.15;12.80;;;;;;;;;;2116181;28;20088;-44
2022/12/26 03:32:58;;;;;;;23.20;14.18;;;;;;;;;;2123313;28;20039;-44
2022/12/26 03:34:16;;;;;;;19.88;13.85;;;;;;;;;;2118205;27;20039;-43
2022/12/26 03:35:17;;;;;;;24.48;13.13;;;;;;;;;;2114611;28;20043;-44
2022/12/26 03:36:24;;;;;;;23.10;14.68;;;;;;;;;;2114627;28;20051;-44
2022/12/26 03:37:41;;;;;;;18.77;12.77;;;;;;;;;;2114693;28;20089;-43
2022/12/26 03:38:54;;;;;;;22.88;12.60;;;;;;;;;;2114469;28;20044;-43
2022/12/26 04:20:15;;;;;;;21.85;14.25;;;;;;;;;;2114481;28;20047;-43
2022/12/26 04:44:51;;;;;;;18.90;12.90;;;;;;;;;;2122595;28;20096;-46
2022/12/26 04:45:53;;;;;;;19.48;13.23;;;;;;;;;;2122718;28;20043;-46
2022/12/26 04:46:54;;;;;;;;;;;;;;;;;;2123085;28;20380;-45
2022/12/26 04:50:47;;;;;;;19.55;12.70;;;;;;;;;;2122911;28;20039;-44
2022/12/26 04:51:49;;;;;;;20.80;14.57;;;;;;;;;;2122807;28;20155;-44
2022/12/26 04:52:59;;;;;;;20.23;13.55;;;;;;;;;;2122529;28;20067;-44
2022/12/26 04:54:01;;;;;;;22.95;14.38;;;;;;;;;;2122579;27;20119;-44
2022/12/26 04:55:02;;;;;;;21.67;15.02;;;;;;;;;;2122759;28;20054;-43
2022/12/26 04:56:04;;;;;;;25.23;14.38;;;;;;;;;;2122598;28;20047;-43
2022/12/26 04:57:05;;;;;;;22.02;14.93;;;;;;;;;;2122722;28;20395;-44
2022/12/26 04:58:06;;;;;;;24.13;15.35;;;;;;;;;;2122545;27;20392;-44
2022/12/26 04:59:08;;;;;;;26.30;16.83;;;;;;;;;;2122526;28;20293;-44
2022/12/26 05:00:09;;;;;;;21.10;14.50;;;;;;;;;;2122694;28;20043;-43
2022/12/26 05:10:34;;;;;;;22.73;14.88;;;;;;;;;;2101504;28;20480;-47
2022/12/26 05:11:35;;;;;;;21.52;15.15;;;;;;;;;;2122514;28;20043;-45
2022/12/26 05:12:36;;;;;;;22.55;14.45;;;;;;;;;;2122570;28;20138;-44
2022/12/26 05:13:37;;;;;;;21.38;15.98;;;;;;;;;;2122276;27;20047;-44
2022/12/26 05:14:38;;;;;;;23.35;14.65;;;;;;;;;;2122690;28;20043;-45
2022/12/26 05:28:55;;;;;;;21.67;15.20;;;;;;;;;;2122364;27;20310;-45
2022/12/26 05:29:56;;;;;;;26.52;15.45;;;;;;;;;;2122887;28;20051;-43
2022/12/26 05:30:57;;;;;;;24.23;15.30;;;;;;;;;;2122477;28;20097;-43
2022/12/26 05:31:58;;;;;;;24.73;16.05;;;;;;;;;;2122653;28;20100;-43
2022/12/26 05:34:20;;;;;;;24.08;12.48;;;;;;;;;;2114930;28;20411;-45
2022/12/26 05:35:21;;;;;;;25.38;16.35;;;;;;;;;;2113912;28;20052;-45
2022/12/26 05:36:23;;;;;;;24.57;15.47;;;;;;;;;;2114030;28;20040;-44
2022/12/26 05:37:24;;;;;;;24.92;15.55;;;;;;;;;;2113764;28;20492;-46
2022/12/26 05:38:25;;;;;;;21.23;14.00;;;;;;;;;;2113815;28;20044;-44
2022/12/26 05:39:27;;;;;;;27.63;15.80;;;;;;;;;;2114346;28;20039;-43
2022/12/26 05:40:28;;;;;;;25.35;16.08;;;;;;;;;;2113863;28;20442;-43
2022/12/26 05:41:29;;;;;;;23.83;15.10;;;;;;;;;;2114114;28;20074;-46
2022/12/26 05:42:30;;;;;;;24.35;16.55;;;;;;;;;;2113907;28;20048;-46
2022/12/26 05:43:31;;;;;;;25.40;16.55;;;;;;;;;;2113889;28;20043;-45
2022/12/26 05:44:32;;;;;;;25.67;16.77;;;;;;;;;;2113787;28;20043;-48
2022/12/26 05:45:33;;;;;;;21.58;12.82;;;;;;;;;;2115069;28;20490;-44
2022/12/26 05:46:35;;;;;;;29.30;17.63;;;;;;;;;;2115340;28;20052;-45
2022/12/26 05:47:36;;;;;;;27.90;17.50;;;;;;;;;;2115603;28;20130;-45
2022/12/26 05:48:37;;;;;;;29.20;17.77;;;;;;;;;;2115317;28;20269;-44
2022/12/26 05:49:38;;;;;;;30.88;18.48;;;;;;;;;;2115428;28;20055;-44
2022/12/26 05:50:39;;;;;;;27.92;15.70;;;;;;;;;;2115572;28;20043;-43
2022/12/26 05:51:40;;;;;;;29.55;19.27;;;;;;;;;;2115266;28;20687;-43
2022/12/26 05:52:41;;;;;;;30.17;19.95;;;;;;;;;;2115568;28;20047;-43
2022/12/26 05:53:42;;;;;;;28.73;19.00;;;;;;;;;;2115644;28;20480;-44
2022/12/26 05:54:44;;;;;;;28.92;16.67;;;;;;;;;;2115456;28;20040;-45
2022/12/26 05:55:45;;;;;;;28.77;18.50;;;;;;;;;;2115298;28;20048;-44
2022/12/26 05:56:46;;;;;;;29.50;17.73;;;;;;;;;;2115397;28;20044;-45
2022/12/26 05:57:50;;;;;;;29.13;19.52;;;;;;;;;;2115284;28;20074;-45
2022/12/26 05:58:53;;;;;;;28.83;18.63;;;;;;;;;;2115299;28;20052;-45
2022/12/26 05:59:54;;;;;;;28.10;18.45;;;;;;;;;;2115557;28;20051;-43
2022/12/26 06:01:02;;;;;;;29.67;19.57;;;;;;;;;;2115370;28;20063;-43
2022/12/26 06:02:03;;;;;;;30.30;18.40;;;;;;;;;;2115232;28;20055;-43
2022/12/26 06:03:05;;;;;;;28.77;18.58;;;;;;;;;;2115153;28;20044;-43
2022/12/26 06:04:06;;;;;;;29.20;19.60;;;;;;;;;;2120500;28;20091;-43
2022/12/26 06:05:08;;;;;;;30.63;19.53;;;;;;;;;;2123761;28;20479;-43
2022/12/26 06:06:09;;;;;;;31.65;20.10;;;;;;;;;;2123743;28;20051;-43
2022/12/26 06:07:10;;;;;;;34.28;19.00;;;;;;;;;;2123887;28;20419;-43
2022/12/26 06:08:11;;;;;;;37.97;20.50;;;;;;;;;;2123757;27;20047;-43
2022/12/26 06:09:12;;;;;;;30.83;20.63;;;;;;;;;;2123725;28;20411;-43
2022/12/26 06:10:14;;;;;;;32.85;20.00;;;;;;;;;;2123944;28;20403;-44
2022/12/26 06:11:15;;;;;;;32.13;19.20;;;;;;;;;;2123941;28;20168;-43
2022/12/26 06:12:16;;;;;;;34.20;20.25;;;;;;;;;;2123844;28;20054;-43
2022/12/26 06:13:18;;;;;;;43.43;20.97;;;;;;;;;;2123752;27;20047;-43
2022/12/26 06:14:18;;;;;;;35.72;21.00;;;;;;;;;;2123694;28;20046;-43
2022/12/26 06:15:20;;;;;;;35.63;20.00;;;;;;;;;;2123972;28;20079;-45
2022/12/26 06:16:20;;;;;;;35.13;21.48;;;;;;;;;;2123889;28;20043;-46
2022/12/26 06:17:22;;;;;;;36.58;18.73;;;;;;;;;;2123777;28;20134;-47
2022/12/26 06:18:23;;;;;;;33.58;20.55;;;;;;;;;;2123574;27;20067;-44
2022/12/26 06:19:24;;;;;;;35.78;20.48;;;;;;;;;;2123751;28;20054;-45
2022/12/26 06:20:25;;;;;;;32.38;20.35;;;;;;;;;;2123878;28;20373;-43
2022/12/26 06:21:26;;;;;;;30.77;20.35;;;;;;;;;;2123557;28;20479;-43
2022/12/26 06:22:27;;;;;;;33.47;20.42;;;;;;;;;;2123648;28;20058;-43
2022/12/26 06:23:28;;;;;;;32.95;19.77;;;;;;;;;;2123647;27;20054;-43
2022/12/26 06:24:29;;;;;;;31.08;20.33;;;;;;;;;;2123576;28;20043;-43
2022/12/26 06:25:31;;;;;;;27.70;16.25;;;;;;;;;;2123734;28;20184;-44
2022/12/26 06:26:32;;;;;;;31.35;19.50;;;;;;;;;;2123829;28;20049;-43
2022/12/26 06:27:33;;;;;;;31.50;19.45;;;;;;;;;;2123492;28;20085;-43
2022/12/26 06:28:34;;;;;;;28.80;18.42;;;;;;;;;;2123733;27;20077;-43
2022/12/26 06:29:35;;;;;;;26.67;16.50;;;;;;;;;;2123789;28;20043;-45
2022/12/26 06:30:36;;;;;;;30.25;18.75;;;;;;;;;;2123684;28;20051;-45
2022/12/26 06:31:37;;;;;;;29.87;18.47;;;;;;;;;;2123663;28;20501;-46
2022/12/26 06:32:38;;;;;;;28.58;18.10;;;;;;;;;;2123911;28;20096;-43
2022/12/26 06:33:39;;;;;;;30.73;18.67;;;;;;;;;;2121694;27;20103;-45
2022/12/26 06:34:40;;;;;;;28.65;18.33;;;;;;;;;;2115229;28;20051;-44
2022/12/26 06:35:42;;;;;;;28.30;18.40;;;;;;;;;;2115213;28;20051;-45
2022/12/26 06:36:43;;;;;;;32.33;20.10;;;;;;;;;;2115078;28;20040;-45
2022/12/26 06:37:44;;;;;;;28.88;18.20;;;;;;;;;;2115014;28;20043;-46
2022/12/26 06:38:45;;;;;;;29.33;18.80;;;;;;;;;;2114927;28;20096;-45
2022/12/26 06:39:46;;;;;;;27.40;18.50;;;;;;;;;;2115149;28;20047;-46
2022/12/26 06:40:48;;;;;;;32.85;17.63;;;;;;;;;;2115076;28;20287;-45
2022/12/26 06:41:49;;;;;;;28.20;16.63;;;;;;;;;;2115207;28;20484;-43
2022/12/26 06:42:50;;;;;;;27.55;17.95;;;;;;;;;;2115089;28;20048;-43
2022/12/26 06:43:51;;;;;;;27.33;18.25;;;;;;;;;;2114921;28;20044;-43
2022/12/26 06:44:52;;;;;;;27.85;18.35;;;;;;;;;;2115145;28;20058;-43
2022/12/26 06:45:54;;;;;;;27.33;17.42;;;;;;;;;;2115252;28;20134;-43
2022/12/26 06:46:55;;;;;;;28.88;17.85;;;;;;;;;;2115327;28;20056;-45
2022/12/26 06:47:58;;;;;;;31.83;19.65;;;;;;;;;;2114915;28;20487;-46
2022/12/26 06:48:59;;;;;;;32.35;20.33;;;;;;;;;;2115176;28;20051;-45
2022/12/26 06:50:00;;;;;;;32.75;19.40;;;;;;;;;;2114962;28;20545;-45
2022/12/26 06:51:02;;;;;;;31.70;18.27;;;;;;;;;;2114975;28;20101;-45
2022/12/26 06:52:03;;;;;;;32.88;20.00;;;;;;;;;;2114922;28;20050;-47
2022/12/26 06:53:04;;;;;;;35.72;18.73;;;;;;;;;;2114833;28;20552;-46
2022/12/26 06:54:06;;;;;;;29.33;19.38;;;;;;;;;;2115003;28;20047;-48
2022/12/26 06:55:07;;;;;;;30.10;19.25;;;;;;;;;;2115105;28;20039;-45
2022/12/26 06:56:10;;;;;;;31.50;19.15;;;;;;;;;;2114424;28;20484;-45
2022/12/26 06:57:11;;;;;;;29.88;19.70;;;;;;;;;;2114904;28;20559;-46
2022/12/26 06:58:12;;;;;;;28.90;18.93;;;;;;;;;;2114987;28;20044;-45
2022/12/26 06:59:13;;;;;;;30.17;18.48;;;;;;;;;;2114880;28;20070;-46
2022/12/26 07:00:14;;;;;;;25.08;16.45;;;;;;;;;;2119100;28;20054;-45
2022/12/26 07:01:16;;;;;;;28.70;18.30;;;;;;;;;;2123386;28;20043;-45
2022/12/26 07:02:18;;;;;;;27.40;18.02;;;;;;;;;;2123502;28;20054;-45
2022/12/26 07:03:19;;;;;;;32.20;19.60;;;;;;;;;;2123276;27;20055;-45
2022/12/26 07:04:20;;;;;;;31.15;19.27;;;;;;;;;;2123409;28;20503;-45
2022/12/26 07:05:21;;;;;;;33.47;20.10;;;;;;;;;;2123419;28;20058;-47
2022/12/26 07:06:23;;;;;;;30.50;16.63;;;;;;;;;;2123435;28;20522;-46
2022/12/26 07:07:23;;;;;;;;;;;;;;;;;;2124144;28;20411;-46
2022/12/26 07:08:25;;;;;;;29.85;16.98;;;;;;;;;;2123346;27;19966;-46
2022/12/26 07:09:26;;;;;;;34.22;20.73;;;;;;;;;;2123413;28;20095;-45
2022/12/26 07:10:34;;;;;;;35.53;20.50;;;;;;;;;;2123342;28;20126;-46
2022/12/26 07:11:37;;;;;;;38.53;23.23;;;;;;;;;;2123637;28;20043;-43
2022/12/26 07:12:38;;;;;;;34.95;21.25;;;;;;;;;;2123246;28;20047;-43
2022/12/26 07:13:39;;;;;;;37.70;24.33;;;;;;;;;;2123378;27;20043;-43
2022/12/26 07:14:40;;;;;;;42.13;24.77;;;;;;;;;;2123344;28;20384;-43
2022/12/26 07:15:41;;;;;;;40.13;24.98;;;;;;;;;;2123250;28;20403;-43
2022/12/26 07:16:43;;;;;;;38.03;21.20;;;;;;;;;;2123447;28;20074;-43
2022/12/26 07:17:44;;;;;;;44.60;26.92;;;;;;;;;;2123251;28;20179;-43
2022/12/26 07:18:46;;;;;;;49.93;28.07;;;;;;;;;;2123248;27;20107;-44
2022/12/26 07:19:46;;;;;;;50.53;28.27;;;;;;;;;;2123380;28;20035;-43
2022/12/26 07:20:48;;;;;;;45.22;26.40;;;;;;;;;;2123397;28;20043;-43
2022/12/26 07:21:49;;;;;;;45.15;27.40;;;;;;;;;;2123164;28;20039;-43
2022/12/26 07:22:50;;;;;;;44.97;22.30;;;;;;;;;;2123385;28;20039;-43
2022/12/26 07:23:51;;;;;;;45.30;23.75;;;;;;;;;;2123190;27;20126;-43
2022/12/26 07:24:52;;;;;;;44.20;26.30;;;;;;;;;;2123249;28;20047;-43
2022/12/26 07:25:53;;;;;;;45.30;25.88;;;;;;;;;;2123238;28;20488;-43
2022/12/26 07:26:55;;;;;;;43.25;25.42;;;;;;;;;;2123223;28;20466;-43
2022/12/26 07:27:57;;;;;;;38.70;24.05;;;;;;;;;;2123448;28;20047;-43
2022/12/26 07:28:58;;;;;;;45.90;25.52;;;;;;;;;;2123367;27;20043;-46
2022/12/26 07:29:59;;;;;;;40.00;25.58;;;;;;;;;;2123275;28;20118;-45
2022/12/26 07:31:00;;;;;;;40.13;24.23;;;;;;;;;;2123247;28;20039;-46
2022/12/26 07:32:01;;;;;;;43.63;26.53;;;;;;;;;;2123477;28;20396;-45
2022/12/26 07:33:02;;;;;;;46.42;22.73;;;;;;;;;;2123322;28;20092;-46
2022/12/26 07:34:03;;;;;;;40.10;24.50;;;;;;;;;;2118038;27;20100;-46
2022/12/26 07:35:04;;;;;;;36.42;22.65;;;;;;;;;;2114733;28;20051;-45
2022/12/26 07:36:06;;;;;;;41.00;23.15;;;;;;;;;;2114948;28;20050;-45
2022/12/26 07:37:07;;;;;;;37.50;22.48;;;;;;;;;;2114707;28;20054;-45
2022/12/26 07:38:08;;;;;;;39.72;23.67;;;;;;;;;;2115031;28;20047;-46
2022/12/26 07:39:11;;;;;;;40.78;23.58;;;;;;;;;;2114894;28;20048;-46
2022/12/26 07:40:12;;;;;;;35.67;21.83;;;;;;;;;;2114989;28;20404;-47
2022/12/26 07:42:33;;;;;;;33.40;19.75;;;;;;;;;;2114823;28;20504;-45
2022/12/26 07:43:34;;;;;;;34.20;21.08;;;;;;;;;;2114647;28;20054;-45
2022/12/26 07:44:37;;;;;;;33.22;20.95;;;;;;;;;;2114785;28;20093;-47
2022/12/26 07:45:38;;;;;;;31.73;19.92;;;;;;;;;;2114874;28;20100;-45
2022/12/26 07:46:46;;;;;;;35.10;21.70;;;;;;;;;;2115050;28;20156;-45
2022/12/26 07:47:47;;;;;;;32.85;21.42;;;;;;;;;;2114814;28;20048;-46
2022/12/26 07:48:48;;;;;;;33.67;19.30;;;;;;;;;;2114667;28;20044;-46
2022/12/26 07:49:49;;;;;;;31.75;19.98;;;;;;;;;;2114736;28;20039;-45
2022/12/26 07:50:50;;;;;;;35.55;21.52;;;;;;;;;;2114754;28;20044;-45
2022/12/26 07:51:52;;;;;;;37.97;23.45;;;;;;;;;;2114824;28;20044;-46
2022/12/26 07:52:53;;;;;;;38.15;22.73;;;;;;;;;;2115058;28;20043;-43
2022/12/26 07:53:54;;;;;;;33.97;18.15;;;;;;;;;;2114779;28;20047;-43
2022/12/26 07:54:56;;;;;;;35.22;21.20;;;;;;;;;;2114965;28;20039;-46
2022/12/26 07:55:57;;;;;;;33.70;21.33;;;;;;;;;;2114585;28;20396;-45
2022/12/26 07:56:58;;;;;;;38.78;21.00;;;;;;;;;;2114776;28;20055;-45
2022/12/26 07:58:20;;;;;;;34.88;19.52;;;;;;;;;;2114804;28;20047;-47
2022/12/26 07:59:21;;;;;;;31.85;19.55;;;;;;;;;;2114810;28;20152;-45
2022/12/26 08:00:22;;;;;;;32.65;20.38;;;;;;;;;;2114716;28;20472;-46
2022/12/26 08:01:23;;;;;;;31.17;20.73;;;;;;;;;;2114666;28;20130;-45
2022/12/26 08:02:24;;;;;;;30.05;20.23;;;;;;;;;;2114584;28;20047;-45
2022/12/26 08:03:26;;;;;;;31.33;17.80;;;;;;;;;;2114698;28;20044;-45
2022/12/26 08:04:27;;;;;;;29.58;18.75;;;;;;;;;;2114553;28;20085;-46
2022/12/26 08:05:28;;;;;;;30.33;18.77;;;;;;;;;;2115188;28;20063;-43
2022/12/26 08:06:29;;;;;;;31.80;19.02;;;;;;;;;;2114697;28;20047;-43
2022/12/26 08:07:30;;;;;;;28.77;18.30;;;;;;;;;;2114138;28;20100;-43
2022/12/26 08:08:31;;;;;;;31.55;19.10;;;;;;;;;;2114340;28;20062;-43
2022/12/26 08:09:32;;;;;;;28.33;17.67;;;;;;;;;;2114673;28;20075;-43
2022/12/26 08:10:33;;;;;;;27.23;14.75;;;;;;;;;;2114641;28;20051;-42
2022/12/26 08:11:34;;;;;;;29.83;17.73;;;;;;;;;;2115094;28;20478;-45
2022/12/26 08:12:35;;;;;;;26.98;16.77;;;;;;;;;;2114724;28;20051;-45
2022/12/26 08:13:37;;;;;;;29.10;18.38;;;;;;;;;;2114614;28;20072;-43
2022/12/26 08:14:38;;;;;;;27.30;16.20;;;;;;;;;;2114545;28;20127;-43